Time;durP1;ratioP1;P1;durP2;ratioP2;P2;SDS_P1;SDS_P2;PMS_P1;PMS_P2;Temp;Humidity;BMP_temperature;BMP_pressure;BME280_temperature;BME280_humidity;BME280_pressure;Samples;Min_cycle;Max_cycle;Signal;HPM_P1;HPM_P2
2021/05/05 00:00:59;;;;;;;22.05;13.35;;;7.00;62.00;;;;;;5098384;28;20031;-79
2021/05/05 00:03:25;;;;;;;22.60;12.93;;;7.00;62.40;;;;;;5113044;28;20084;-78
2021/05/05 00:05:53;;;;;;;17.55;10.32;;;7.00;63.00;;;;;;5096908;28;20052;-79
2021/05/05 00:08:19;;;;;;;19.55;13.05;;;7.00;62.30;;;;;;5094447;28;20020;-78
2021/05/05 00:10:45;;;;;;;16.55;10.32;;;7.00;62.20;;;;;;5107395;28;20542;-79
2021/05/05 00:13:10;;;;;;;13.63;8.18;;;7.00;62.30;;;;;;5092743;28;20103;-78
2021/05/05 00:15:36;;;;;;;13.73;9.18;;;7.00;62.10;;;;;;5105682;28;20084;-78
2021/05/05 00:18:02;;;;;;;15.52;9.63;;;7.00;61.90;;;;;;5107722;28;20103;-79
2021/05/05 00:20:28;;;;;;;12.60;7.03;;;7.10;61.80;;;;;;5093284;28;20016;-79
2021/05/05 00:22:54;;;;;;;14.43;7.10;;;7.10;61.60;;;;;;5106476;28;20028;-79
2021/05/05 00:25:20;;;;;;;15.07;7.55;;;7.10;61.30;;;;;;5102425;28;20390;-79
2021/05/05 00:27:46;;;;;;;15.20;7.80;;;7.20;61.30;;;;;;5097192;28;20036;-78
2021/05/05 00:30:13;;;;;;;15.52;8.25;;;7.20;61.10;;;;;;5109513;28;20019;-79
2021/05/05 00:32:39;;;;;;;12.23;7.68;;;7.20;61.10;;;;;;5112182;28;20057;-79
2021/05/05 00:35:07;;;;;;;14.85;8.13;;;7.20;61.00;;;;;;5096607;28;20039;-79
2021/05/05 00:37:33;;;;;;;13.25;8.50;;;7.20;60.90;;;;;;5099935;28;20107;-79
2021/05/05 00:39:59;;;;;;;13.48;8.25;;;7.30;60.80;;;;;;5113254;28;20531;-79
2021/05/05 00:42:25;;;;;;;14.18;7.30;;;7.30;60.80;;;;;;5106355;28;20034;-81
2021/05/05 00:44:57;;;;;;;12.45;6.70;;;7.30;60.70;;;;;;5103775;28;20389;-79
2021/05/05 00:47:24;;;;;;;21.17;11.52;;;7.30;60.60;;;;;;5097795;28;20027;-79
2021/05/05 00:49:50;;;;;;;15.55;8.80;;;7.30;61.00;;;;;;5101364;28;20184;-78
2021/05/05 00:52:15;;;;;;;13.23;7.40;;;7.20;61.10;;;;;;5105912;28;20024;-79
2021/05/05 00:54:41;;;;;;;15.90;7.13;;;7.20;61.10;;;;;;5091470;28;20054;-79
2021/05/05 00:57:07;;;;;;;12.68;7.30;;;7.10;61.10;;;;;;5107010;28;20031;-79
2021/05/05 00:59:33;;;;;;;11.82;6.60;;;7.10;61.20;;;;;;5105389;28;20048;-78
2021/05/05 01:01:59;;;;;;;10.20;5.60;;;7.10;61.10;;;;;;5092271;28;20020;-79
2021/05/05 01:04:25;;;;;;;9.27;5.40;;;7.10;61.00;;;;;;5105451;28;20459;-82
2021/05/05 01:06:52;;;;;;;10.50;6.22;;;7.20;60.80;;;;;;5108333;28;20075;-80
2021/05/05 01:09:21;;;;;;;9.88;5.40;;;7.30;60.60;;;;;;5098906;28;21137;-79
2021/05/05 01:11:47;;;;;;;11.23;6.20;;;7.40;60.40;;;;;;5106286;28;20026;-79
2021/05/05 01:14:13;;;;;;;10.52;5.95;;;7.40;60.20;;;;;;5103473;28;20428;-79
2021/05/05 01:16:39;;;;;;;7.05;4.88;;;7.50;60.20;;;;;;5113059;28;20020;-79
2021/05/05 01:19:05;;;;;;;8.85;5.53;;;7.50;59.90;;;;;;5111580;28;20102;-79
2021/05/05 01:21:31;;;;;;;8.05;5.65;;;7.60;59.70;;;;;;5112134;28;20141;-79
2021/05/05 01:23:57;;;;;;;9.73;5.85;;;7.70;59.60;;;;;;5098302;28;20066;-80
2021/05/05 01:26:22;;;;;;;10.02;6.40;;;7.70;59.40;;;;;;5111960;28;20435;-79
2021/05/05 01:28:48;;;;;;;8.93;5.82;;;7.70;59.40;;;;;;5112752;28;20034;-78
2021/05/05 01:31:16;;;;;;;10.65;6.63;;;7.70;59.40;;;;;;5111587;28;20359;-79
2021/05/05 01:33:43;;;;;;;11.05;5.75;;;7.80;59.40;;;;;;5111874;28;20107;-79
2021/05/05 01:36:12;;;;;;;10.23;6.40;;;7.80;59.40;;;;;;5098511;28;20023;-79
2021/05/05 01:38:38;;;;;;;10.65;6.35;;;7.80;59.30;;;;;;5111479;28;20454;-79
2021/05/05 01:41:05;;;;;;;8.85;6.32;;;7.90;59.30;;;;;;5097355;28;20020;-81
2021/05/05 01:43:31;;;;;;;11.98;6.78;;;7.90;59.30;;;;;;5113269;28;20099;-80
2021/05/05 01:45:57;;;;;;;9.93;6.53;;;7.90;59.30;;;;;;5098719;28;20113;-80
2021/05/05 01:48:23;;;;;;;9.98;6.90;;;7.90;59.40;;;;;;5091565;28;20170;-80
2021/05/05 01:50:48;;;;;;;11.25;6.97;;;7.90;59.40;;;;;;5102290;28;20118;-80
2021/05/05 01:53:16;;;;;;;11.00;6.55;;;7.90;59.50;;;;;;5116098;28;20024;-80
2021/05/05 01:55:43;;;;;;;9.57;6.88;;;7.80;59.50;;;;;;5116793;28;20466;-80
2021/05/05 01:58:09;;;;;;;10.80;6.95;;;7.80;59.60;;;;;;5116491;28;20027;-80
2021/05/05 02:00:35;;;;;;;10.27;7.40;;;7.80;59.60;;;;;;5115198;28;20027;-80
2021/05/05 02:03:01;;;;;;;11.32;7.80;;;7.80;59.80;;;;;;5116855;27;20107;-80
2021/05/05 02:05:27;;;;;;;12.82;7.57;;;7.80;60.00;;;;;;5109233;28;20143;-80
2021/05/05 02:07:53;;;;;;;11.35;7.72;;;7.80;60.20;;;;;;5103489;28;20044;-79
2021/05/05 02:10:19;;;;;;;13.57;8.65;;;7.80;60.30;;;;;;5110000;28;20561;-78
2021/05/05 02:12:46;;;;;;;14.02;8.65;;;7.70;60.40;;;;;;5104990;28;20587;-79
2021/05/05 02:15:14;;;;;;;12.50;8.38;;;7.70;60.70;;;;;;5110371;28;20043;-80
2021/05/05 02:17:40;;;;;;;13.35;8.65;;;7.60;60.90;;;;;;5116548;28;20027;-80
2021/05/05 02:20:09;;;;;;;13.68;9.68;;;7.50;61.10;;;;;;5114982;28;20034;-79
2021/05/05 02:22:35;;;;;;;19.92;11.38;;;7.40;61.50;;;;;;5114048;28;20028;-78
2021/05/05 02:25:01;;;;;;;21.70;13.82;;;7.30;61.90;;;;;;5108539;28;20043;-80
2021/05/05 02:27:28;;;;;;;25.48;15.55;;;7.30;62.30;;;;;;5112450;28;20419;-81
2021/05/05 02:29:53;;;;;;;21.73;13.85;;;7.20;62.70;;;;;;5114948;28;20020;-80
2021/05/05 02:32:23;;;;;;;24.92;13.88;;;7.20;63.00;;;;;;5111601;28;20084;-80
2021/05/05 02:34:50;;;;;;;24.17;12.88;;;7.30;63.40;;;;;;5105022;28;20038;-80
2021/05/05 02:37:15;;;;;;;20.83;14.07;;;7.30;63.50;;;;;;5108688;28;20032;-80
2021/05/05 02:39:42;;;;;;;24.35;14.25;;;7.30;63.90;;;;;;5095051;28;20381;-80
2021/05/05 02:42:12;;;;;;;21.05;13.52;;;7.30;64.10;;;;;;5094646;28;20058;-79
2021/05/05 02:44:37;;;;;;;22.27;14.77;;;7.40;64.40;;;;;;5109250;28;20024;-79
2021/05/05 02:47:04;;;;;;;28.05;14.40;;;7.40;64.50;;;;;;5105820;28;20031;-80
2021/05/05 02:49:31;;;;;;;22.63;12.43;;;7.60;65.50;;;;;;5109770;28;20020;-80
2021/05/05 02:51:58;;;;;;;19.60;10.93;;;7.80;65.10;;;;;;5094311;28;20053;-80
2021/05/05 02:54:24;;;;;;;20.77;12.23;;;8.10;65.10;;;;;;5109710;28;20046;-81
2021/05/05 02:56:50;;;;;;;18.15;12.25;;;8.40;65.10;;;;;;5115973;28;20509;-80
2021/05/05 02:59:15;;;;;;;17.63;11.07;;;8.60;64.80;;;;;;5109980;28;20038;-80
2021/05/05 03:01:41;;;;;;;19.77;12.25;;;8.90;64.50;;;;;;5100053;28;20106;-80
2021/05/05 03:04:07;;;;;;;21.17;12.27;;;9.10;64.30;;;;;;5102637;28;20166;-80
2021/05/05 03:06:32;;;;;;;19.70;12.82;;;9.40;64.20;;;;;;5111178;28;20490;-80
2021/05/05 03:08:58;;;;;;;17.17;11.90;;;9.70;63.80;;;;;;5111129;28;20035;-80
2021/05/05 03:11:24;;;;;;;17.95;10.90;;;10.00;63.40;;;;;;5108890;28;20469;-80
2021/05/05 03:13:50;;;;;;;16.63;9.63;;;10.30;63.00;;;;;;5113728;28;20050;-80
2021/05/05 03:16:16;;;;;;;13.15;8.77;;;10.40;62.30;;;;;;5111499;28;20359;-80
2021/05/05 03:18:42;;;;;;;29.02;10.98;;;10.60;61.80;;;;;;5110100;28;20061;-79
2021/05/05 03:21:08;;;;;;;9.50;7.40;;;10.70;61.20;;;;;;5115387;28;20431;-79
2021/05/05 03:23:33;;;;;;;17.58;10.00;;;10.80;60.70;;;;;;5100465;28;20051;-79
2021/05/05 03:25:59;;;;;;;21.65;12.77;;;10.80;60.40;;;;;;5107756;28;20034;-79
2021/05/05 03:28:25;;;;;;;17.85;9.45;;;10.80;60.70;;;;;;5105352;28;20032;-81
2021/05/05 03:30:50;;;;;;;14.13;8.93;;;10.80;60.80;;;;;;5102991;28;20359;-79
2021/05/05 03:33:16;;;;;;;12.07;7.63;;;11.10;60.70;;;;;;5103654;28;20029;-79
2021/05/05 03:35:42;;;;;;;10.30;7.18;;;11.40;60.60;;;;;;5108342;28;20034;-80
2021/05/05 03:38:08;;;;;;;9.60;6.68;;;11.80;60.00;;;;;;5109718;28;20051;-79
2021/05/05 03:40:34;;;;;;;9.82;6.60;;;12.20;59.00;;;;;;5106617;28;20077;-80
2021/05/05 03:43:00;;;;;;;11.65;7.65;;;12.50;58.00;;;;;;5113299;28;20426;-80
2021/05/05 03:45:26;;;;;;;12.48;6.40;;;12.60;57.40;;;;;;5113324;28;20115;-80
2021/05/05 03:47:52;;;;;;;8.35;6.60;;;12.80;57.10;;;;;;5112993;28;20049;-80
2021/05/05 03:50:20;;;;;;;7.72;6.20;;;13.10;57.10;;;;;;5113231;28;20111;-80
2021/05/05 03:52:45;;;;;;;11.55;6.28;;;13.30;56.80;;;;;;5112599;28;20023;-80
2021/05/05 03:55:12;;;;;;;9.82;5.90;;;13.50;56.20;;;;;;5112777;28;20038;-81
2021/05/05 03:57:37;;;;;;;10.02;5.95;;;13.80;55.50;;;;;;5108548;28;20497;-81
2021/05/05 04:00:05;;;;;;;7.68;5.97;;;14.00;55.30;;;;;;5111801;28;20098;-80
2021/05/05 04:02:31;;;;;;;9.00;5.78;;;14.30;55.50;;;;;;5106378;28;20099;-80
2021/05/05 04:04:57;;;;;;;13.02;6.18;;;14.60;55.10;;;;;;5107206;28;20545;-79
2021/05/05 04:07:23;;;;;;;8.80;6.20;;;14.90;54.70;;;;;;5109888;28;20382;-79
2021/05/05 04:09:48;;;;;;;12.18;5.63;;;15.20;54.50;;;;;;5110431;28;20106;-80
2021/05/05 04:12:14;;;;;;;8.02;6.25;;;15.50;53.90;;;;;;5111343;28;20051;-81
2021/05/05 04:14:41;;;;;;;8.68;5.53;;;15.60;53.30;;;;;;5101744;28;20032;-80
2021/05/05 04:17:07;;;;;;;8.40;5.60;;;15.80;53.10;;;;;;5113452;28;20030;-80
2021/05/05 04:19:34;;;;;;;7.53;5.00;;;16.00;53.10;;;;;;5112440;28;20385;-80
2021/05/05 04:22:01;;;;;;;8.55;5.60;;;16.20;52.90;;;;;;5112173;28;20035;-81
2021/05/05 04:24:27;;;;;;;7.22;5.18;;;16.40;53.00;;;;;;5107293;28;20020;-81
2021/05/05 04:26:53;;;;;;;7.40;4.72;;;16.70;52.90;;;;;;5107564;28;20031;-82
2021/05/05 04:29:19;;;;;;;8.63;5.18;;;16.90;52.30;;;;;;5105743;28;20023;-83
2021/05/05 04:31:47;;;;;;;10.02;4.97;;;17.10;52.10;;;;;;5101046;28;20073;-82
2021/05/05 04:34:14;;;;;;;8.70;4.90;;;17.40;52.10;;;;;;5107040;28;20024;-81
2021/05/05 04:36:40;;;;;;;8.25;4.68;;;17.70;51.80;;;;;;5107063;28;20035;-82
2021/05/05 04:39:05;;;;;;;7.20;4.45;;;18.00;51.60;;;;;;5105383;28;20119;-83
2021/05/05 04:41:31;;;;;;;7.95;4.55;;;18.40;51.20;;;;;;5107265;28;20093;-82
2021/05/05 04:43:57;;;;;;;7.05;4.03;;;18.60;50.80;;;;;;5105902;28;20028;-81
2021/05/05 04:46:23;;;;;;;5.78;3.42;;;19.00;50.70;;;;;;5108376;28;20366;-81
2021/05/05 04:48:49;;;;;;;10.38;5.97;;;19.40;50.00;;;;;;5106970;28;20036;-80
2021/05/05 04:51:17;;;;;;;7.97;4.50;;;19.70;49.50;;;;;;5114559;27;20032;-81
2021/05/05 04:53:44;;;;;;;7.80;3.95;;;19.80;48.80;;;;;;5108816;28;20032;-82
2021/05/05 04:56:10;;;;;;;5.35;3.35;;;19.70;47.90;;;;;;5106108;28;20038;-75
2021/05/05 04:58:36;;;;;;;10.43;4.30;;;19.50;47.70;;;;;;5110017;28;20040;-65
2021/05/05 05:01:02;;;;;;;6.40;3.85;;;19.30;48.60;;;;;;5107138;28;20115;-80
2021/05/05 05:03:28;;;;;;;8.10;4.00;;;19.20;48.70;;;;;;5111966;28;20033;-79
2021/05/05 05:05:54;;;;;;;5.60;3.83;;;19.10;49.20;;;;;;5109552;28;20043;-73
2021/05/05 05:08:19;;;;;;;7.32;3.80;;;19.20;49.40;;;;;;5103242;28;20067;-74
2021/05/05 05:10:45;;;;;;;4.97;3.47;;;19.30;49.30;;;;;;5108462;28;20144;-78
2021/05/05 05:13:11;;;;;;;5.55;3.75;;;19.50;49.00;;;;;;5104663;28;20027;-77
2021/05/05 05:15:37;;;;;;;5.93;3.85;;;19.60;49.50;;;;;;5111656;28;20385;-82
2021/05/05 05:18:03;;;;;;;6.53;4.00;;;19.90;48.90;;;;;;5111000;28;20111;-84
2021/05/05 05:20:28;;;;;;;7.45;3.88;;;19.90;48.60;;;;;;5104402;28;20058;-86
2021/05/05 05:22:57;;;;;;;6.53;3.90;;;19.70;48.40;;;;;;5111895;28;20059;-82
2021/05/05 05:25:25;;;;;;;4.55;3.50;;;19.10;48.10;;;;;;5100497;28;20035;-84
2021/05/05 05:27:52;;;;;;;5.93;3.40;;;18.80;49.20;;;;;;5112912;28;20113;-80
2021/05/05 05:30:22;;;;;;;7.13;3.90;;;18.90;49.90;;;;;;5101253;28;20110;-89
2021/05/05 05:32:48;;;;;;;5.68;3.42;;;19.20;49.10;;;;;;5115376;28;20019;-87
2021/05/05 05:35:15;;;;;;;4.65;2.60;;;19.40;48.60;;;;;;5114255;28;20118;-82
2021/05/05 05:37:41;;;;;;;5.78;3.30;;;19.20;46.80;;;;;;5106070;28;20115;-88
2021/05/05 05:40:08;;;;;;;4.70;3.22;;;18.60;47.80;;;;;;5106655;28;20107;-90
2021/05/05 05:42:34;;;;;;;5.60;3.38;;;18.50;48.70;;;;;;5111698;28;20066;-91
2021/05/05 05:45:00;;;;;;;18.73;8.73;;;18.70;49.10;;;;;;5108312;28;20040;-90
2021/05/05 05:47:26;;;;;;;6.35;3.90;;;19.00;49.10;;;;;;5112132;27;20500;-88
2021/05/05 05:49:52;;;;;;;6.63;3.55;;;19.30;48.90;;;;;;5114741;28;20024;-88
2021/05/05 05:52:18;;;;;;;4.32;3.00;;;19.70;48.80;;;;;;5106080;28;20026;-91
2021/05/05 05:54:44;;;;;;;6.03;3.30;;;19.90;46.90;;;;;;5111040;28;20360;-89
2021/05/05 05:57:10;;;;;;;6.88;3.10;;;19.90;46.50;;;;;;5107212;28;20394;-90
2021/05/05 05:59:36;;;;;;;5.03;3.13;;;19.70;46.70;;;;;;5110002;28;20077;-78
2021/05/05 06:02:02;;;;;;;9.77;4.45;;;19.70;46.90;;;;;;5112921;28;20020;-86
2021/05/05 06:04:28;;;;;;;5.20;3.10;;;19.50;47.00;;;;;;5110606;28;20032;-88
2021/05/05 06:06:53;;;;;;;4.85;3.08;;;19.60;47.70;;;;;;5113505;28;20043;-85
2021/05/05 06:09:19;;;;;;;6.20;3.33;;;19.80;47.50;;;;;;5112315;28;20030;-86
2021/05/05 06:11:45;;;;;;;6.60;3.00;;;20.00;47.40;;;;;;5104684;28;20053;-86
2021/05/05 06:14:13;;;;;;;9.68;3.33;;;20.10;47.10;;;;;;5109182;28;20362;-86
2021/05/05 06:16:38;;;;;;;6.30;3.28;;;20.30;47.20;;;;;;5112832;28;20067;-87
2021/05/05 06:19:04;;;;;;;4.28;3.08;;;20.60;46.50;;;;;;5114150;28;20473;-79
2021/05/05 06:21:30;;;;;;;5.40;2.70;;;20.80;46.40;;;;;;5113561;28;20027;-85
2021/05/05 06:23:55;;;;;;;6.45;3.05;;;20.90;45.40;;;;;;5116146;28;21304;-75
2021/05/05 06:26:21;;;;;;;4.85;3.13;;;21.00;45.70;;;;;;5114571;28;20038;-83
2021/05/05 06:28:47;;;;;;;4.88;2.63;;;21.10;45.80;;;;;;5109822;28;20102;-86
2021/05/05 06:31:13;;;;;;;11.15;3.30;;;21.20;45.50;;;;;;5115857;28;20119;-86
2021/05/05 06:33:39;;;;;;;4.95;2.40;;;21.40;45.70;;;;;;5102800;28;20101;-86
2021/05/05 06:36:05;;;;;;;6.93;2.85;;;21.90;45.80;;;;;;5115963;28;20377;-86
2021/05/05 06:38:31;;;;;;;5.72;2.60;;;22.20;45.20;;;;;;5116029;28;20110;-87
2021/05/05 06:40:57;;;;;;;5.40;2.17;;;22.60;44.70;;;;;;5104180;28;20438;-87
2021/05/05 06:43:23;;;;;;;4.10;2.40;;;22.80;43.70;;;;;;5105880;28;20061;-86
2021/05/05 06:45:49;;;;;;;5.93;2.30;;;22.90;43.50;;;;;;5111285;28;20054;-86
2021/05/05 06:48:14;;;;;;;3.20;2.03;;;23.10;43.90;;;;;;5104443;28;20027;-86
2021/05/05 06:50:40;;;;;;;5.10;2.15;;;23.20;42.40;;;;;;5103113;28;20438;-86
2021/05/05 06:53:06;;;;;;;6.30;2.78;;;23.10;42.20;;;;;;5109569;28;20024;-87
2021/05/05 06:55:32;;;;;;;3.72;2.25;;;22.90;42.50;;;;;;5108066;28;20032;-86
2021/05/05 06:57:58;;;;;;;4.05;2.03;;;22.80;42.50;;;;;;5102703;28;20027;-86
2021/05/05 07:00:24;;;;;;;4.57;2.40;;;22.80;42.60;;;;;;5105540;28;20020;-85
2021/05/05 07:02:49;;;;;;;5.00;2.20;;;22.80;43.00;;;;;;5110927;28;20051;-85
2021/05/05 07:05:15;;;;;;;4.82;2.38;;;22.90;42.80;;;;;;5096410;28;20145;-85
2021/05/05 07:07:41;;;;;;;4.25;3.13;;;23.10;43.10;;;;;;5098127;28;20101;-87
2021/05/05 07:10:10;;;;;;;7.03;2.90;;;23.40;42.70;;;;;;5110523;28;20020;-86
2021/05/05 07:12:36;;;;;;;4.93;2.30;;;23.50;42.60;;;;;;5108049;28;20023;-85
2021/05/05 07:15:02;;;;;;;11.18;2.50;;;23.70;42.50;;;;;;5111932;28;20435;-84
2021/05/05 07:17:28;;;;;;;3.38;2.30;;;23.70;41.70;;;;;;5114117;28;20374;-85
2021/05/05 07:19:54;;;;;;;4.60;2.70;;;23.70;42.20;;;;;;5114233;28;20030;-85
2021/05/05 07:22:20;;;;;;;3.75;2.30;;;23.90;42.00;;;;;;5099710;28;20035;-86
2021/05/05 07:24:47;;;;;;;5.35;2.40;;;23.80;41.80;;;;;;5115150;28;20462;-85
2021/05/05 07:27:13;;;;;;;4.47;1.98;;;23.70;41.80;;;;;;5115966;28;20016;-87
2021/05/05 07:29:40;;;;;;;4.43;1.95;;;23.80;41.70;;;;;;5114357;28;20474;-87
2021/05/05 07:32:06;;;;;;;4.07;2.30;;;23.70;41.30;;;;;;5114235;28;20424;-89
2021/05/05 07:34:31;;;;;;;4.00;2.00;;;23.70;41.30;;;;;;5113730;28;20106;-88
2021/05/05 07:37:05;;;;;;;5.90;2.10;;;23.80;41.90;;;;;;5114160;28;20054;-88
2021/05/05 07:47:30;;;;;;;6.05;1.70;;;24.50;40.40;;;;;;5115313;28;20043;-88
2021/05/05 07:49:56;;;;;;;2.92;1.67;;;24.60;40.20;;;;;;5114141;28;20023;-87
2021/05/05 07:52:22;;;;;;;5.50;1.60;;;24.60;40.00;;;;;;5113642;28;20027;-86
2021/05/05 07:54:48;;;;;;;5.25;1.80;;;24.70;40.00;;;;;;5113140;28;20026;-87
2021/05/05 07:57:14;;;;;;;3.88;1.90;;;24.60;39.90;;;;;;5113543;28;20027;-88
2021/05/05 07:59:41;;;;;;;3.28;1.70;;;24.70;40.10;;;;;;5113043;28;20019;-89
2021/05/05 08:02:07;;;;;;;4.43;1.85;;;24.70;39.60;;;;;;5113776;28;20039;-87
2021/05/05 08:04:33;;;;;;;3.15;1.25;;;24.90;39.80;;;;;;5112848;28;20111;-88
2021/05/05 08:07:00;;;;;;;4.70;2.17;;;25.00;38.70;;;;;;5114488;28;20055;-87
2021/05/05 08:09:26;;;;;;;7.22;2.60;;;24.80;38.50;;;;;;5114682;28;20031;-86
2021/05/05 08:11:53;;;;;;;4.30;1.90;;;24.50;39.70;;;;;;5114769;28;20102;-87
2021/05/05 08:14:19;;;;;;;3.97;1.77;;;24.50;39.60;;;;;;5114566;28;20020;-87
2021/05/05 08:16:46;;;;;;;4.65;1.73;;;24.80;39.10;;;;;;5100536;28;20466;-87
2021/05/05 08:19:13;;;;;;;3.90;1.35;;;25.00;38.60;;;;;;5114856;28;20020;-87
2021/05/05 08:21:39;;;;;;;5.03;2.03;;;25.20;38.30;;;;;;5116082;28;20099;-87
2021/05/05 08:24:05;;;;;;;4.45;1.70;;;25.10;38.00;;;;;;5113872;28;20106;-87
2021/05/05 08:26:31;;;;;;;5.05;1.60;;;25.00;38.30;;;;;;5112890;28;20055;-88
2021/05/05 08:28:58;;;;;;;2.25;1.60;;;25.10;38.50;;;;;;5112881;28;20020;-87
2021/05/05 08:31:24;;;;;;;7.07;2.00;;;25.10;38.10;;;;;;5113073;28;20458;-87
2021/05/05 08:33:50;;;;;;;9.45;2.35;;;25.10;38.70;;;;;;5115660;28;20024;-88
2021/05/05 08:36:16;;;;;;;4.10;1.80;;;25.00;38.70;;;;;;5120334;28;20020;-86
2021/05/05 08:38:42;;;;;;;4.70;1.60;;;25.00;38.40;;;;;;5114654;28;20020;-87
2021/05/05 08:41:11;;;;;;;1.67;1.13;;;25.00;38.10;;;;;;5112909;28;20016;-88
2021/05/05 08:43:37;;;;;;;2.72;1.58;;;25.00;38.10;;;;;;5113630;28;20042;-86
2021/05/05 08:46:07;;;;;;;14.55;2.15;;;25.10;38.10;;;;;;5113925;28;20039;-88
2021/05/05 08:48:35;;;;;;;3.63;1.60;;;25.20;38.20;;;;;;5112703;28;20034;-86
2021/05/05 08:51:03;;;;;;;4.70;1.80;;;25.30;38.00;;;;;;5113694;28;20048;-87
2021/05/05 08:53:29;;;;;;;4.90;1.60;;;25.10;37.60;;;;;;5104683;28;20428;-85
2021/05/05 08:55:55;;;;;;;2.13;1.60;;;24.60;38.00;;;;;;5106593;28;20032;-87
2021/05/05 08:58:21;;;;;;;3.25;1.88;;;23.90;38.50;;;;;;5113834;28;20019;-86
2021/05/05 09:00:47;;;;;;;5.80;2.35;;;23.50;39.50;;;;;;5113896;28;20031;-86
2021/05/05 09:03:12;;;;;;;3.90;2.47;;;23.20;40.40;;;;;;5109524;28;20020;-86
2021/05/05 09:06:05;;;;;;;1.92;1.58;;;22.90;40.90;;;;;;5102596;28;20066;-86
2021/05/05 09:08:31;;;;;;;3.28;1.75;;;22.90;41.20;;;;;;5096380;28;20435;-86
2021/05/05 09:11:08;;;;;;;7.95;2.50;;;22.70;41.00;;;;;;5115675;28;20023;-86
2021/05/05 09:13:57;;;;;;;4.93;2.17;;;22.70;41.80;;;;;;5114877;28;20066;-87
2021/05/05 09:16:24;;;;;;;1.98;1.50;;;23.20;41.80;;;;;;5112871;28;20027;-87
2021/05/05 09:18:59;;;;;;;5.10;2.10;;;23.80;40.60;;;;;;5112991;28;20040;-88
2021/05/05 09:21:40;;;;;;;2.25;1.70;;;24.20;40.00;;;;;;5114046;28;20480;-89
2021/05/05 09:24:22;;;;;;;4.10;1.80;;;24.50;39.30;;;;;;5112927;28;20023;-87
2021/05/05 09:26:51;;;;;;;3.45;1.60;;;24.90;39.20;;;;;;5110462;28;20031;-88
2021/05/05 09:29:18;;;;;;;6.05;1.70;;;25.10;38.50;;;;;;5110991;28;20028;-88
2021/05/05 09:31:44;;;;;;;3.88;1.67;;;25.10;38.40;;;;;;5113489;28;20370;-87
2021/05/05 09:34:11;;;;;;;13.77;2.60;;;25.20;37.80;;;;;;5112236;28;20373;-87
2021/05/05 09:36:54;;;;;;;5.93;2.17;;;25.10;38.30;;;;;;5113315;28;20106;-87
2021/05/05 09:39:29;;;;;;;8.38;2.38;;;24.90;38.40;;;;;;5113424;28;20047;-88
2021/05/05 09:41:56;;;;;;;9.98;2.45;;;24.50;38.60;;;;;;5113655;28;20019;-88
2021/05/05 09:44:22;;;;;;;6.50;1.90;;;24.30;39.20;;;;;;5112002;28;20024;-87
2021/05/05 09:46:50;;;;;;;6.75;2.10;;;24.40;38.90;;;;;;5113119;28;20396;-88
2021/05/05 09:49:34;;;;;;;4.47;2.08;;;24.00;39.00;;;;;;5111928;28;20035;-86
2021/05/05 09:52:10;;;;;;;2.53;1.50;;;23.80;40.00;;;;;;5112232;28;20027;-86
2021/05/05 09:54:57;;;;;;;5.88;2.25;;;23.70;39.40;;;;;;5112040;28;20382;-86
2021/05/05 09:57:33;;;;;;;6.43;2.00;;;23.50;39.90;;;;;;5112242;28;20113;-86
2021/05/05 10:00:09;;;;;;;1.73;1.52;;;23.50;40.30;;;;;;5112430;28;20028;-85
2021/05/05 10:02:45;;;;;;;4.75;2.30;;;23.40;40.30;;;;;;5111462;28;20111;-86
2021/05/05 10:05:15;;;;;;;9.07;2.40;;;23.60;40.80;;;;;;5097901;28;20044;-86
2021/05/05 10:08:03;;;;;;;10.98;2.25;;;24.10;40.30;;;;;;5113362;28;20473;-86
2021/05/05 10:10:35;;;;;;;4.28;2.13;;;24.60;39.80;;;;;;5101065;28;20052;-84
2021/05/05 10:13:03;;;;;;;4.82;1.73;;;24.60;38.80;;;;;;5113493;28;20070;-86
2021/05/05 10:15:31;;;;;;;6.13;1.88;;;24.50;39.00;;;;;;5109483;28;20028;-85
2021/05/05 10:17:57;;;;;;;3.50;1.63;;;24.10;39.10;;;;;;5123228;28;20454;-85
2021/05/05 10:20:25;;;;;;;3.78;1.50;;;23.70;39.80;;;;;;5115591;28;20381;-85
2021/05/05 10:22:56;;;;;;;8.13;2.50;;;23.90;40.30;;;;;;5115210;28;20046;-85
2021/05/05 10:25:23;;;;;;;4.25;1.70;;;24.00;40.00;;;;;;5115016;28;20027;-85
2021/05/05 10:27:50;;;;;;;9.73;2.70;;;24.10;39.30;;;;;;5116959;28;20019;-84
2021/05/05 10:30:23;;;;;;;6.13;2.38;;;23.90;39.40;;;;;;5115951;28;20066;-84
2021/05/05 10:33:13;;;;;;;5.03;1.73;;;23.60;40.20;;;;;;5115553;28;20020;-84
2021/05/05 10:35:38;;;;;;;5.85;1.88;;;23.60;41.00;;;;;;5101992;28;20032;-87
2021/05/05 10:38:04;;;;;;;5.45;2.40;;;23.50;40.60;;;;;;5115357;28;20042;-86
2021/05/05 10:40:33;;;;;;;4.57;2.60;;;23.30;40.90;;;;;;5116987;28;20028;-86
2021/05/05 10:43:00;;;;;;;6.53;2.78;;;23.00;41.50;;;;;;5114983;28;20027;-88
2021/05/05 10:45:36;;;;;;;11.13;4.50;;;23.00;41.70;;;;;;5115961;27;20035;-87
2021/05/05 10:48:06;;;;;;;11.75;4.03;;;22.80;41.60;;;;;;5114858;28;20513;-86
2021/05/05 10:50:52;;;;;;;4.65;2.03;;;22.70;42.10;;;;;;5116108;28;20028;-87
2021/05/05 10:53:27;;;;;;;22.00;5.80;;;23.10;42.40;;;;;;5118733;27;20027;-86
2021/05/05 10:55:58;;;;;;;6.22;3.35;;;23.40;41.80;;;;;;5116465;28;20382;-87
2021/05/05 10:58:32;;;;;;;4.22;2.40;;;23.80;42.20;;;;;;5104203;27;20377;-87
2021/05/05 11:01:05;;;;;;;10.50;3.47;;;24.40;41.10;;;;;;5116038;28;20028;-86
2021/05/05 11:03:43;;;;;;;15.95;4.70;;;24.30;39.50;;;;;;5116175;28;20023;-86
2021/05/05 11:06:34;;;;;;;15.52;3.05;;;23.70;40.10;;;;;;5115610;28;20075;-88
2021/05/05 11:09:12;;;;;;;1.88;1.63;;;23.70;40.70;;;;;;5104724;28;20043;-87
2021/05/05 11:11:44;;;;;;;6.82;2.00;;;23.70;40.20;;;;;;5097385;28;20095;-87
2021/05/05 11:14:32;;;;;;;6.93;3.20;;;23.80;40.30;;;;;;5113226;28;20068;-87
2021/05/05 11:16:59;;;;;;;5.10;2.20;;;23.80;40.60;;;;;;5114257;28;20024;-87
2021/05/05 11:19:37;;;;;;;3.72;1.77;;;24.00;40.20;;;;;;5114332;28;20027;-86
2021/05/05 11:22:03;;;;;;;6.28;2.22;;;23.70;39.70;;;;;;5115322;28;20034;-86
2021/05/05 11:24:32;;;;;;;8.15;2.38;;;23.30;40.20;;;;;;5115204;28;20024;-87
2021/05/05 11:26:58;;;;;;;5.40;2.40;;;23.10;40.90;;;;;;5114212;28;20028;-85
2021/05/05 11:29:39;;;;;;;3.75;2.65;;;23.00;41.20;;;;;;5108238;28;20051;-86
2021/05/05 11:32:12;;;;;;;4.65;1.70;;;22.70;41.70;;;;;;5108000;28;20030;-85
2021/05/05 11:34:40;;;;;;;3.25;1.90;;;22.50;41.80;;;;;;5114016;28;20019;-85
2021/05/05 11:37:10;;;;;;;3.83;2.20;;;22.30;42.50;;;;;;5115327;28;20024;-86
2021/05/05 11:39:41;;;;;;;7.15;2.88;;;22.30;42.50;;;;;;5113713;28;20534;-85
2021/05/05 11:42:10;;;;;;;4.03;2.13;;;22.50;43.00;;;;;;5113857;28;20110;-85
2021/05/05 11:44:46;;;;;;;3.25;1.92;;;22.60;42.80;;;;;;5116084;28;20062;-87
2021/05/05 11:47:14;;;;;;;3.78;1.80;;;22.50;42.00;;;;;;5114333;28;20070;-86
2021/05/05 11:49:43;;;;;;;6.32;1.80;;;22.50;41.90;;;;;;5113768;28;20026;-84
2021/05/05 11:52:32;;;;;;;2.90;1.90;;;22.50;41.70;;;;;;5114037;28;20076;-86
2021/05/05 11:55:00;;;;;;;3.75;1.75;;;22.40;41.70;;;;;;5100662;28;20073;-88
2021/05/05 11:57:30;;;;;;;2.70;1.60;;;22.30;42.30;;;;;;5115091;28;20081;-85
2021/05/05 12:00:09;;;;;;;10.88;3.70;;;22.20;42.50;;;;;;5114845;27;20019;-84
2021/05/05 12:02:49;;;;;;;4.47;2.42;;;22.10;42.70;;;;;;5114536;28;20028;-86
2021/05/05 12:05:28;;;;;;;14.98;4.80;;;22.20;43.20;;;;;;5099907;28;20521;-85
2021/05/05 12:08:09;;;;;;;10.43;2.58;;;22.20;43.40;;;;;;5115073;28;20032;-86
2021/05/05 12:10:49;;;;;;;6.13;1.92;;;22.20;43.00;;;;;;5113187;28;20028;-85
2021/05/05 12:13:21;;;;;;;3.90;1.70;;;22.20;43.20;;;;;;5113217;28;21535;-85
2021/05/05 12:15:59;;;;;;;8.52;3.13;;;22.10;42.80;;;;;;5114131;28;20028;-86
2021/05/05 12:18:34;;;;;;;18.27;5.43;;;22.10;43.30;;;;;;5113180;28;20110;-87
2021/05/05 12:21:03;;;;;;;11.13;3.20;;;22.00;43.30;;;;;;5113258;28;20023;-86
2021/05/05 12:23:37;;;;;;;12.25;4.88;;;21.80;43.50;;;;;;5114313;28;20104;-85
2021/05/05 12:26:19;;;;;;;7.78;2.67;;;21.80;43.70;;;;;;5112851;28;20031;-85
2021/05/05 12:28:47;;;;;;;6.57;2.92;;;21.80;43.60;;;;;;5113737;28;20032;-86
2021/05/05 12:31:18;;;;;;;4.57;1.98;;;21.80;43.50;;;;;;5102412;28;20023;-86
2021/05/05 12:33:46;;;;;;;5.15;1.95;;;21.90;42.80;;;;;;5115568;28;20024;-86
2021/05/05 12:36:20;;;;;;;8.93;3.35;;;22.00;42.90;;;;;;5113646;28;20023;-86
2021/05/05 12:38:49;;;;;;;2.78;1.73;;;22.10;43.30;;;;;;5112874;28;20031;-86
2021/05/05 12:41:17;;;;;;;6.25;1.75;;;22.10;42.50;;;;;;5114683;28;20024;-86
2021/05/05 12:43:54;;;;;;;6.78;1.70;;;22.20;42.30;;;;;;5113964;28;20027;-86
2021/05/05 12:46:31;;;;;;;6.88;2.10;;;22.10;42.10;;;;;;5112541;28;20027;-85
2021/05/05 12:48:58;;;;;;;3.45;1.60;;;21.90;42.20;;;;;;5112072;28;20027;-86
2021/05/05 12:51:27;;;;;;;7.25;2.47;;;21.80;42.50;;;;;;5111591;28;20081;-85
2021/05/05 12:54:02;;;;;;;4.15;1.60;;;21.80;42.80;;;;;;5111852;28;20024;-86
2021/05/05 12:56:42;;;;;;;3.85;1.38;;;21.70;42.80;;;;;;5113153;28;20077;-87
2021/05/05 12:59:09;;;;;;;6.47;2.20;;;21.70;42.70;;;;;;5112639;28;20046;-86